Time;durP1;ratioP1;P1;durP2;ratioP2;P2;SDS_P1;SDS_P2;PMS_P1;PMS_P2;Temp;Humidity;BMP_temperature;BMP_pressure;BME280_temperature;BME280_humidity;BME280_pressure;Samples;Min_cycle;Max_cycle;Signal;HPM_P1;HPM_P2
2024/02/13 00:01:39;;;;;;;7.78;4.28;;;;;;;3.23;100.00;98107.41;6108208;19;20505;-74
2024/02/13 00:03:39;;;;;;;6.88;4.25;;;;;;;3.21;100.00;98109.66;6107801;19;20371;-73
2024/02/13 00:05:39;;;;;;;6.07;4.03;;;;;;;3.10;100.00;98109.31;6107866;19;20007;-73
2024/02/13 00:07:41;;;;;;;8.90;3.30;;;;;;;3.13;100.00;98110.56;6106941;19;20327;-73
2024/02/13 00:09:44;;;;;;;6.95;3.35;;;;;;;3.03;100.00;98115.31;6107229;19;20010;-73
2024/02/13 00:11:46;;;;;;;5.07;3.55;;;;;;;2.93;100.00;98114.94;6105762;19;20007;-73
2024/02/13 00:13:47;;;;;;;5.95;3.20;;;;;;;2.86;100.00;98117.44;6107789;19;20009;-73
2024/02/13 00:15:47;;;;;;;4.03;2.95;;;;;;;2.86;100.00;98123.69;6104531;19;20010;-73
2024/02/13 00:17:48;;;;;;;4.43;3.20;;;;;;;2.80;100.00;98127.75;6105895;19;19999;-73
2024/02/13 00:19:48;;;;;;;5.00;2.92;;;;;;;2.71;100.00;98133.28;6108002;19;20331;-73
2024/02/13 00:21:48;;;;;;;5.85;3.15;;;;;;;2.65;100.00;98134.66;6107396;19;20011;-73
2024/02/13 00:23:49;;;;;;;7.10;2.70;;;;;;;2.60;100.00;98134.84;6106713;19;20007;-73
2024/02/13 00:25:49;;;;;;;4.65;3.25;;;;;;;2.52;100.00;98141.19;6106930;19;20394;-73
2024/02/13 00:27:49;;;;;;;4.63;2.88;;;;;;;2.44;100.00;98150.22;6106356;19;20584;-74
2024/02/13 00:29:50;;;;;;;5.07;2.90;;;;;;;2.36;100.00;98145.63;6106841;19;20007;-73
2024/02/13 00:31:50;;;;;;;5.32;3.08;;;;;;;2.27;100.00;98153.09;6107270;19;20043;-73
2024/02/13 00:33:52;;;;;;;5.22;3.45;;;;;;;2.23;100.00;98151.03;6109268;19;20006;-73
2024/02/13 00:35:53;;;;;;;5.68;2.45;;;;;;;2.19;100.00;98152.81;6111959;19;20007;-73
2024/02/13 00:37:54;;;;;;;5.47;3.13;;;;;;;2.14;100.00;98150.25;6110805;19;20013;-73
2024/02/13 00:39:54;;;;;;;3.88;2.50;;;;;;;2.14;100.00;98147.53;6112552;19;20014;-73
2024/02/13 00:41:55;;;;;;;4.22;2.50;;;;;;;2.09;100.00;98152.41;6111829;19;20066;-73
2024/02/13 00:43:55;;;;;;;3.97;2.50;;;;;;;2.04;100.00;98158.84;6112039;19;20009;-73
2024/02/13 00:45:57;;;;;;;3.28;2.30;;;;;;;1.98;100.00;98154.69;6111551;19;20385;-73
2024/02/13 00:47:57;;;;;;;4.25;2.58;;;;;;;1.97;100.00;98155.81;6111586;19;20025;-73
2024/02/13 00:49:58;;;;;;;4.22;2.47;;;;;;;1.98;100.00;98165.59;6111750;19;20624;-73
2024/02/13 00:51:58;;;;;;;3.35;2.30;;;;;;;1.93;100.00;98174.00;6112827;19;20003;-73
2024/02/13 00:53:58;;;;;;;4.35;2.60;;;;;;;1.91;100.00;98185.22;6112432;19;20076;-73
2024/02/13 00:56:01;;;;;;;4.40;2.85;;;;;;;1.90;100.00;98180.09;6111624;19;20017;-73
2024/02/13 00:58:01;;;;;;;3.60;2.08;;;;;;;1.84;100.00;98193.13;6109911;19;20006;-73
2024/02/13 01:00:05;;;;;;;3.10;2.05;;;;;;;1.80;100.00;98185.91;6111345;19;20348;-73
2024/02/13 01:02:05;;;;;;;3.88;2.85;;;;;;;1.78;100.00;98191.69;6111628;19;20002;-73
2024/02/13 01:04:06;;;;;;;4.28;2.63;;;;;;;1.79;100.00;98193.28;6111511;19;20002;-73
2024/02/13 01:06:07;;;;;;;3.20;2.33;;;;;;;1.74;100.00;98209.03;6111255;19;20375;-73
2024/02/13 01:08:08;;;;;;;3.20;2.20;;;;;;;1.67;100.00;98207.63;6110581;19;20003;-73
2024/02/13 01:10:09;;;;;;;5.53;2.42;;;;;;;1.63;100.00;98212.13;6110841;19;20003;-73
2024/02/13 01:12:09;;;;;;;4.50;2.65;;;;;;;1.61;100.00;98208.94;6110131;19;20003;-73
2024/02/13 01:14:09;;;;;;;6.15;2.88;;;;;;;1.64;100.00;98211.00;6111215;19;20062;-73
2024/02/13 01:16:10;;;;;;;3.50;2.40;;;;;;;1.64;100.00;98219.16;6111437;19;20010;-73
2024/02/13 01:18:10;;;;;;;4.38;2.78;;;;;;;1.63;100.00;98211.31;6110845;19;20062;-73
2024/02/13 01:20:12;;;;;;;3.95;2.55;;;;;;;1.61;100.00;98222.56;6111097;19;20010;-73
2024/02/13 01:22:12;;;;;;;4.03;2.65;;;;;;;1.62;100.00;98218.72;6111242;19;20006;-73
2024/02/13 01:24:13;;;;;;;5.03;2.80;;;;;;;1.65;100.00;98228.16;6111187;19;19999;-73
2024/02/13 01:26:13;;;;;;;4.07;2.63;;;;;;;1.65;100.00;98228.94;6110549;19;19994;-73
2024/02/13 01:28:14;;;;;;;6.60;2.78;;;;;;;1.63;100.00;98227.69;6109940;19;20015;-73
2024/02/13 01:30:14;;;;;;;4.40;2.78;;;;;;;1.59;100.00;98230.28;6110884;19;20005;-73
2024/02/13 01:32:16;;;;;;;5.88;2.80;;;;;;;1.60;100.00;98231.88;6110761;19;20335;-73
2024/02/13 01:34:16;;;;;;;6.50;3.58;;;;;;;1.56;100.00;98228.19;6111676;19;20487;-73
2024/02/13 01:36:18;;;;;;;3.95;2.60;;;;;;;1.51;100.00;98231.09;6110076;19;20023;-73
2024/02/13 01:38:20;;;;;;;4.60;3.17;;;;;;;1.52;100.00;98237.34;6110542;19;20095;-73
2024/02/13 01:40:20;;;;;;;4.53;3.28;;;;;;;1.57;100.00;98237.16;6110461;19;20007;-73
2024/02/13 01:42:21;;;;;;;6.50;2.85;;;;;;;1.61;100.00;98230.75;6111420;19;20054;-73
2024/02/13 01:44:21;;;;;;;5.10;3.00;;;;;;;1.61;100.00;98247.09;6111716;19;20512;-73
2024/02/13 01:46:21;;;;;;;5.85;4.00;;;;;;;1.59;100.00;98245.84;6099620;19;20056;-73
2024/02/13 01:48:25;;;;;;;5.13;2.90;;;;;;;1.52;100.00;98238.16;6108814;19;20250;-73
2024/02/13 01:50:27;;;;;;;4.78;3.22;;;;;;;1.50;100.00;98243.13;6110030;19;19999;-73
2024/02/13 01:52:28;;;;;;;6.50;3.33;;;;;;;1.45;100.00;98235.09;6111548;19;20003;-73
2024/02/13 01:54:29;;;;;;;4.32;3.00;;;;;;;1.43;100.00;98245.53;6110820;19;20019;-73
2024/02/13 01:56:31;;;;;;;5.80;3.00;;;;;;;1.41;100.00;98250.53;6108665;19;20009;-73
2024/02/13 01:58:32;;;;;;;5.78;3.60;;;;;;;1.43;100.00;98251.00;6109757;19;20002;-73
2024/02/13 02:00:32;;;;;;;5.60;3.63;;;;;;;1.42;100.00;98248.59;6111111;19;20339;-73
2024/02/13 02:02:33;;;;;;;7.30;3.47;;;;;;;1.38;100.00;98248.44;6108789;19;20010;-73
2024/02/13 02:04:35;;;;;;;5.05;3.58;;;;;;;1.40;100.00;98255.16;6110911;19;20006;-73
2024/02/13 02:06:36;;;;;;;;;;;;;;;1.42;100.00;98263.03;6109569;19;20007;-73
2024/02/13 02:08:36;;;;;;;5.00;2.80;;;;;;;1.36;100.00;98256.94;6109726;19;19934;-73
2024/02/13 02:10:37;;;;;;;5.00;3.45;;;;;;;1.31;100.00;98264.47;6109586;19;20422;-73
2024/02/13 02:12:39;;;;;;;4.18;3.08;;;;;;;1.23;100.00;98274.25;6109015;19;20014;-73
2024/02/13 02:14:39;;;;;;;;;;;;;;;1.21;100.00;98276.50;6109995;19;20011;-73
2024/02/13 02:16:40;;;;;;;8.85;3.22;;;;;;;1.23;100.00;98273.44;6110475;19;19942;-73
2024/02/13 02:18:40;;;;;;;6.20;3.78;;;;;;;1.19;100.00;98278.75;6108682;19;20033;-73
2024/02/13 02:20:41;;;;;;;6.13;3.95;;;;;;;1.23;100.00;98274.25;6109498;19;20018;-73
2024/02/13 02:22:41;;;;;;;5.38;3.75;;;;;;;1.20;100.00;98263.22;6109741;19;20038;-73
2024/02/13 02:24:41;;;;;;;6.07;3.83;;;;;;;1.21;100.00;98273.78;6107491;19;20006;-73
2024/02/13 02:26:42;;;;;;;9.90;3.45;;;;;;;1.20;100.00;98276.84;6109359;19;20074;-73
2024/02/13 02:28:43;;;;;;;8.55;3.80;;;;;;;1.18;100.00;98279.88;6109546;19;20048;-73
2024/02/13 02:30:44;;;;;;;5.65;3.40;;;;;;;1.17;100.00;98278.28;6109301;19;20502;-73
2024/02/13 02:32:47;;;;;;;6.43;4.00;;;;;;;1.17;100.00;98282.94;6109415;19;20020;-73
2024/02/13 02:34:48;;;;;;;8.13;4.13;;;;;;;1.17;100.00;98285.66;6109646;19;20006;-73
2024/02/13 02:36:50;;;;;;;12.63;4.18;;;;;;;1.18;100.00;98287.25;6110421;19;20352;-74
2024/02/13 02:38:50;;;;;;;8.48;4.15;;;;;;;1.20;100.00;98285.00;6108677;19;20019;-73
2024/02/13 02:40:51;;;;;;;8.30;3.75;;;;;;;1.21;100.00;98284.69;6109422;19;20002;-73
2024/02/13 02:42:52;;;;;;;10.02;4.57;;;;;;;1.15;100.00;98285.97;6109868;19;20011;-73
2024/02/13 02:44:53;;;;;;;7.88;4.15;;;;;;;1.17;100.00;98282.94;6110730;19;20011;-73
2024/02/13 02:46:53;;;;;;;6.95;4.15;;;;;;;1.18;100.00;98292.72;6104510;19;20054;-73
2024/02/13 02:48:53;;;;;;;7.03;4.20;;;;;;;1.17;100.00;98299.28;6100070;19;20720;-73
2024/02/13 02:50:54;;;;;;;7.22;4.13;;;;;;;1.15;100.00;98291.41;6102250;19;20010;-73
2024/02/13 02:52:54;;;;;;;8.20;4.15;;;;;;;1.14;100.00;98300.72;6101330;19;20045;-73
2024/02/13 02:54:55;;;;;;;6.03;3.58;;;;;;;1.09;100.00;98300.88;6101991;19;20006;-73
2024/02/13 02:56:56;;;;;;;7.20;4.05;;;;;;;1.05;100.00;98308.09;6099642;19;20481;-74
2024/02/13 02:58:56;;;;;;;6.93;3.97;;;;;;;1.01;100.00;98302.47;6100662;19;20545;-73
2024/02/13 03:00:56;;;;;;;11.43;4.72;;;;;;;1.05;100.00;98310.81;6100970;19;20019;-73
2024/02/13 03:02:57;;;;;;;6.05;4.18;;;;;;;1.03;100.00;98313.06;6101882;19;20010;-73
2024/02/13 03:04:57;;;;;;;7.60;4.78;;;;;;;1.04;100.00;98322.81;6101676;19;20010;-73
2024/02/13 03:06:59;;;;;;;7.72;3.80;;;;;;;1.01;100.00;98323.47;6101481;19;20090;-73
2024/02/13 03:09:00;;;;;;;8.80;5.28;;;;;;;0.96;100.00;98324.41;6099802;19;20459;-73
2024/02/13 03:11:00;;;;;;;10.10;4.45;;;;;;;0.94;100.00;98323.16;6100723;19;20330;-73
2024/02/13 03:13:00;;;;;;;9.45;4.35;;;;;;;0.93;100.00;98329.72;6101425;19;20010;-73
2024/02/13 03:15:01;;;;;;;9.95;4.68;;;;;;;1.01;100.00;98332.44;6101099;19;20093;-73
2024/02/13 03:17:01;;;;;;;10.45;4.78;;;;;;;1.04;100.00;98337.25;6100832;19;20534;-73
2024/02/13 03:19:05;;;;;;;9.65;4.28;;;;;;;1.08;100.00;98343.69;6101180;19;20238;-73
2024/02/13 03:21:08;;;;;;;6.55;4.65;;;;;;;1.12;100.00;98347.34;6099451;19;20329;-73
2024/02/13 03:23:08;;;;;;;7.90;4.85;;;;;;;1.15;100.00;98345.09;6100809;19;20014;-73
2024/02/13 03:25:09;;;;;;;7.43;4.38;;;;;;;1.14;100.00;98341.59;6100480;19;20508;-73
2024/02/13 03:27:09;;;;;;;10.23;4.10;;;;;;;1.15;100.00;98356.00;6100985;19;20073;-73
2024/02/13 03:29:10;;;;;;;10.02;4.30;;;;;;;1.16;100.00;98355.72;6099454;19;20402;-73
2024/02/13 03:31:10;;;;;;;6.50;4.13;;;;;;;1.11;100.00;98351.22;6101089;19;20007;-73
2024/02/13 03:33:10;;;;;;;10.15;4.97;;;;;;;1.12;100.00;98352.81;6100984;19;20303;-73
2024/02/13 03:35:11;;;;;;;10.20;4.95;;;;;;;1.08;100.00;98349.13;6099848;19;20396;-73
2024/02/13 03:37:11;;;;;;;13.95;4.57;;;;;;;1.10;100.00;98356.97;6099474;19;20537;-73
2024/02/13 03:39:11;;;;;;;8.75;5.82;;;;;;;1.08;100.00;98356.50;6100286;19;20006;-73
2024/02/13 03:41:12;;;;;;;11.80;4.95;;;;;;;1.04;100.00;98366.41;6099995;19;20007;-73
2024/02/13 03:43:12;;;;;;;8.52;4.70;;;;;;;0.97;100.00;98366.09;6100677;19;19998;-73
2024/02/13 03:45:13;;;;;;;12.45;5.22;;;;;;;0.92;100.00;98361.59;6099698;19;20090;-73
2024/02/13 03:47:13;;;;;;;11.20;4.78;;;;;;;0.91;100.00;98364.63;6103293;19;20002;-73
2024/02/13 03:49:15;;;;;;;12.73;5.40;;;;;;;0.88;100.00;98351.66;6107226;19;20462;-73
2024/02/13 03:51:16;;;;;;;9.15;5.35;;;;;;;0.87;100.00;98360.94;6107718;19;20048;-73
2024/02/13 03:53:16;;;;;;;8.30;5.55;;;;;;;0.83;100.00;98374.41;6108804;19;19998;-73
2024/02/13 03:55:19;;;;;;;9.77;5.40;;;;;;;0.84;100.00;98373.28;6108020;19;20002;-73
2024/02/13 03:57:20;;;;;;;17.30;5.55;;;;;;;0.80;100.00;98367.66;6107585;19;20015;-73
2024/02/13 03:59:20;;;;;;;7.72;5.13;;;;;;;0.87;100.00;98369.13;6107598;19;20011;-73
2024/02/13 04:01:21;;;;;;;10.63;5.57;;;;;;;0.81;100.00;98371.16;6107160;19;20372;-73
2024/02/13 04:03:26;;;;;;;8.95;5.20;;;;;;;0.76;100.00;98383.03;6108428;19;20331;-73
2024/02/13 04:05:27;;;;;;;12.40;6.03;;;;;;;0.74;100.00;98381.72;6107224;19;20007;-73
2024/02/13 04:07:27;;;;;;;10.38;4.97;;;;;;;0.72;100.00;98373.06;6107279;19;20028;-73
2024/02/13 04:09:28;;;;;;;9.98;6.05;;;;;;;0.72;100.00;98383.97;6110827;19;20228;-73
2024/02/13 04:11:30;;;;;;;8.52;5.15;;;;;;;0.73;100.00;98380.91;6114094;19;20002;-73
2024/02/13 04:13:30;;;;;;;11.23;5.30;;;;;;;0.73;100.00;98382.84;6113318;19;20007;-73
2024/02/13 04:15:31;;;;;;;11.70;6.00;;;;;;;0.78;100.00;98390.88;6112609;19;20013;-73
2024/02/13 04:17:31;;;;;;;8.60;5.45;;;;;;;0.88;100.00;98398.75;6112702;19;20006;-73
2024/02/13 04:19:32;;;;;;;11.80;6.63;;;;;;;0.90;100.00;98407.41;6112778;19;20376;-73
2024/02/13 04:21:33;;;;;;;11.07;5.75;;;;;;;0.88;100.00;98404.19;6111322;19;20062;-73
2024/02/13 04:23:35;;;;;;;13.95;5.45;;;;;;;0.86;100.00;98403.72;6113290;19;20016;-73
2024/02/13 04:25:36;;;;;;;11.02;5.93;;;;;;;0.87;100.00;98404.53;6113120;19;20011;-73
2024/02/13 04:27:37;;;;;;;8.85;5.47;;;;;;;0.84;100.00;98405.97;6112658;19;20316;-73
2024/02/13 04:29:41;;;;;;;12.65;6.20;;;;;;;0.81;100.00;98403.84;6112393;19;20007;-73
2024/02/13 04:31:42;;;;;;;9.95;5.28;;;;;;;0.75;100.00;98399.69;6111407;19;20017;-73
2024/02/13 04:33:43;;;;;;;13.35;5.85;;;;;;;0.69;100.00;98403.66;6112952;19;20395;-73
2024/02/13 04:35:43;;;;;;;11.68;5.60;;;;;;;0.68;100.00;98415.69;6111236;19;20002;-73
2024/02/13 04:37:43;;;;;;;10.45;5.10;;;;;;;0.66;100.00;98405.06;6108228;19;20003;-73
2024/02/13 04:39:44;;;;;;;11.00;5.78;;;;;;;0.67;100.00;98416.81;6112623;19;20006;-73
2024/02/13 04:41:44;;;;;;;8.35;5.68;;;;;;;0.67;100.00;98411.34;6111422;19;20062;-73
2024/02/13 04:43:45;;;;;;;8.05;5.30;;;;;;;0.64;100.00;98414.69;6112604;19;20030;-73
2024/02/13 04:45:45;;;;;;;11.77;5.25;;;;;;;0.56;100.00;98410.81;6111439;19;20003;-73
2024/02/13 04:47:46;;;;;;;9.15;5.10;;;;;;;0.51;100.00;98417.22;6110088;19;19999;-73
2024/02/13 04:49:48;;;;;;;10.18;5.32;;;;;;;0.49;100.00;98410.47;6110461;19;20009;-73
2024/02/13 04:51:48;;;;;;;9.73;5.50;;;;;;;0.45;100.00;98417.66;6111807;19;20005;-73
2024/02/13 04:53:49;;;;;;;9.65;5.45;;;;;;;0.39;100.00;98419.69;6112061;19;20006;-73
2024/02/13 04:55:50;;;;;;;11.60;5.63;;;;;;;0.34;100.00;98413.59;6110009;19;20003;-73
2024/02/13 04:57:51;;;;;;;10.10;5.43;;;;;;;0.31;100.00;98419.66;6110527;19;20042;-73
2024/02/13 04:59:52;;;;;;;6.50;4.45;;;;;;;0.28;100.00;98415.66;6110938;19;20322;-73
2024/02/13 05:01:52;;;;;;;10.80;5.18;;;;;;;0.23;100.00;98416.56;6111146;19;20007;-73
2024/02/13 05:08:11;;;;;;;9.63;5.47;;;;;;;0.06;100.00;98421.91;6007479;19;2006202;-73
2024/02/13 05:10:12;;;;;;;10.43;5.80;;;;;;;0.01;100.00;98434.84;6111649;19;19999;-73
2024/02/13 05:12:12;;;;;;;11.13;5.50;;;;;;;-0.08;100.00;98435.59;6111939;19;20042;-73
2024/02/13 05:14:13;;;;;;;8.43;5.47;;;;;;;-0.11;100.00;98436.19;6110760;19;20549;-73
2024/02/13 05:16:13;;;;;;;9.65;5.32;;;;;;;-0.14;100.00;98428.66;6111445;19;20015;-73
2024/02/13 05:18:13;;;;;;;10.10;5.65;;;;;;;-0.16;100.00;98436.34;6109705;19;19999;-73
2024/02/13 05:20:14;;;;;;;9.25;5.32;;;;;;;-0.26;100.00;98433.03;6109739;19;20075;-73
2024/02/13 05:22:15;;;;;;;9.20;6.00;;;;;;;-0.27;100.00;98429.53;6110149;19;19995;-73
2024/02/13 05:24:15;;;;;;;10.60;5.57;;;;;;;-0.25;100.00;98437.34;6111275;19;20014;-73
2024/02/13 05:26:20;;;;;;;12.10;5.40;;;;;;;-0.28;100.00;98441.50;6111560;19;20010;-73
2024/02/13 05:28:20;;;;;;;12.32;5.97;;;;;;;-0.26;100.00;98435.75;6109902;19;20436;-73
2024/02/13 05:30:22;;;;;;;9.10;6.00;;;;;;;-0.24;100.00;98442.50;6110618;19;20022;-73
2024/02/13 05:32:22;;;;;;;10.25;6.15;;;;;;;-0.24;100.00;98444.44;6111176;19;20015;-73
2024/02/13 05:34:22;;;;;;;13.13;6.25;;;;;;;-0.29;100.00;98438.00;6110021;19;20488;-73
2024/02/13 05:36:25;;;;;;;13.43;7.05;;;;;;;-0.24;100.00;98450.66;6111098;19;20010;-73
2024/02/13 05:38:26;;;;;;;10.95;6.97;;;;;;;-0.23;100.00;98446.03;6109350;19;20472;-73
2024/02/13 05:40:26;;;;;;;13.07;6.63;;;;;;;-0.31;100.00;98453.00;6109445;19;20007;-73
2024/02/13 05:42:27;;;;;;;11.05;7.30;;;;;;;-0.36;100.00;98447.69;6109908;19;20002;-73
2024/02/13 05:44:28;;;;;;;9.65;6.35;;;;;;;-0.39;100.00;98448.31;6110926;19;19995;-73
2024/02/13 05:46:28;;;;;;;13.50;7.15;;;;;;;-0.47;100.00;98457.19;6109370;19;19999;-73
2024/02/13 05:48:29;;;;;;;11.27;6.80;;;;;;;-0.59;100.00;98449.53;6108206;19;20033;-73
2024/02/13 05:50:29;;;;;;;15.07;6.82;;;;;;;-0.64;100.00;98453.19;6108749;19;20451;-73
2024/02/13 05:52:30;;;;;;;15.85;7.55;;;;;;;-0.64;100.00;98460.53;6110338;19;20005;-73
2024/02/13 05:54:30;;;;;;;10.98;6.20;;;;;;;-0.70;100.00;98456.31;6109998;19;19995;-73
2024/02/13 05:56:35;;;;;;;14.05;7.22;;;;;;;-0.77;100.00;98456.72;6110411;19;20022;-73
2024/02/13 05:58:36;;;;;;;12.15;6.88;;;;;;;-0.72;100.00;98453.91;6108753;19;20003;-73
2024/02/13 06:00:36;;;;;;;14.10;7.05;;;;;;;-0.83;100.00;98460.66;6109632;19;20001;-73
2024/02/13 06:02:36;;;;;;;10.75;6.50;;;;;;;-0.88;100.00;98460.78;6108198;19;19999;-73
2024/02/13 06:04:37;;;;;;;12.70;7.28;;;;;;;-0.80;100.00;98462.78;6108447;19;20359;-73
2024/02/13 06:06:42;;;;;;;13.00;6.68;;;;;;;-0.78;100.00;98474.13;6108458;19;20003;-73
2024/02/13 06:08:42;;;;;;;12.13;6.68;;;;;;;-0.86;100.00;98472.13;6107913;19;20002;-73
2024/02/13 06:10:43;;;;;;;13.05;6.50;;;;;;;-0.90;100.00;98473.88;6107974;19;20094;-73
2024/02/13 06:12:45;;;;;;;12.95;7.03;;;;;;;-0.86;100.00;98469.41;6110316;19;20027;-73
2024/02/13 06:14:47;;;;;;;21.03;7.27;;;;;;;-0.88;100.00;98464.28;6108923;19;20003;-73
2024/02/13 06:16:47;;;;;;;11.57;6.95;;;;;;;-0.78;100.00;98468.72;6109126;19;20587;-73
2024/02/13 06:18:48;;;;;;;11.68;6.85;;;;;;;-0.85;100.00;98476.47;6106126;19;20014;-73
2024/02/13 06:20:48;;;;;;;12.60;7.30;;;;;;;-0.85;100.00;98476.47;6108772;19;20003;-73
2024/02/13 06:22:48;;;;;;;13.32;7.15;;;;;;;-0.93;100.00;98477.97;6108209;19;20033;-73
2024/02/13 06:24:49;;;;;;;16.98;7.72;;;;;;;-0.91;100.00;98477.66;6108419;19;20002;-73
2024/02/13 06:26:50;;;;;;;12.85;7.18;;;;;;;-0.96;100.00;98473.16;6109249;19;20007;-73
2024/02/13 06:28:51;;;;;;;18.35;9.15;;;;;;;-0.98;100.00;98485.44;6108247;19;19998;-73
2024/02/13 06:30:52;;;;;;;15.70;7.70;;;;;;;-1.04;100.00;98490.16;6106677;19;20006;-73
2024/02/13 06:32:53;;;;;;;18.83;8.30;;;;;;;-1.06;100.00;98499.72;6109662;19;20034;-73
2024/02/13 06:34:54;;;;;;;11.38;6.90;;;;;;;-1.00;100.00;98493.84;6109649;19;20026;-73
2024/02/13 06:36:54;;;;;;;14.77;8.20;;;;;;;-1.01;100.00;98507.75;6109592;19;20007;-73
2024/02/13 06:38:55;;;;;;;20.63;8.27;;;;;;;-0.98;100.00;98507.16;6106475;19;20022;-73
2024/02/13 06:40:57;;;;;;;16.98;8.68;;;;;;;-0.97;100.00;98503.34;6109807;19;20010;-73
2024/02/13 06:42:58;;;;;;;15.68;7.72;;;;;;;-0.97;100.00;98508.78;6108596;19;20029;-73
2024/02/13 06:44:58;;;;;;;18.25;8.75;;;;;;;-1.00;100.00;98509.34;6109469;19;20011;-73
2024/02/13 06:46:59;;;;;;;17.48;9.35;;;;;;;-0.99;100.00;98509.06;6098546;19;20010;-73
2024/02/13 06:49:00;;;;;;;20.08;8.55;;;;;;;-0.95;100.00;98512.78;6109135;19;20049;-73
2024/02/13 06:51:01;;;;;;;16.35;9.32;;;;;;;-0.97;100.00;98508.78;6108286;19;19999;-74
2024/02/13 06:53:01;;;;;;;19.25;9.30;;;;;;;-0.96;100.00;98511.19;6109003;19;20006;-73
2024/02/13 06:55:02;;;;;;;20.58;9.40;;;;;;;-0.95;100.00;98520.13;6107900;19;20010;-73
2024/02/13 06:57:04;;;;;;;14.98;8.18;;;;;;;-0.96;100.00;98513.88;6108816;19;20007;-73
2024/02/13 06:59:07;;;;;;;13.88;7.78;;;;;;;-1.02;100.00;98517.81;6107640;19;20003;-73
2024/02/13 07:01:09;;;;;;;18.75;7.90;;;;;;;-1.06;100.00;98522.25;6107504;19;20077;-73
2024/02/13 07:03:09;;;;;;;14.20;7.50;;;;;;;-1.01;100.00;98527.56;6109505;19;20019;-73
2024/02/13 07:05:10;;;;;;;17.33;8.38;;;;;;;-0.99;100.00;98525.38;6106997;19;20003;-73
2024/02/13 07:07:11;;;;;;;14.07;7.18;;;;;;;-0.96;100.00;98541.06;6108061;19;20003;-73
2024/02/13 07:09:11;;;;;;;13.27;6.82;;;;;;;-1.02;100.00;98539.53;6107773;19;20397;-73
2024/02/13 07:11:12;;;;;;;12.80;6.95;;;;;;;-1.06;100.00;98535.81;6108635;19;20704;-73
2024/02/13 07:13:12;;;;;;;12.70;6.82;;;;;;;-1.06;100.00;98538.53;6107338;19;20003;-73
2024/02/13 07:15:12;;;;;;;11.38;6.78;;;;;;;-1.06;100.00;98535.00;6105574;19;20011;-73
2024/02/13 07:17:13;;;;;;;18.35;8.32;;;;;;;-1.03;100.00;98542.56;6107898;19;20011;-73
2024/02/13 07:19:14;;;;;;;17.75;8.68;;;;;;;-0.98;100.00;98539.75;6106962;19;20013;-73
2024/02/13 07:21:15;;;;;;;14.20;7.90;;;;;;;-0.92;100.00;98538.53;6107899;19;20062;-74
2024/02/13 07:23:15;;;;;;;14.27;7.35;;;;;;;-0.88;100.00;98545.78;6108002;19;20011;-74
2024/02/13 07:25:15;;;;;;;15.07;8.80;;;;;;;-0.85;100.00;98555.22;6106789;19;19999;-73
2024/02/13 07:27:16;;;;;;;17.45;9.52;;;;;;;-0.79;100.00;98550.50;6107138;19;20367;-73
2024/02/13 07:29:16;;;;;;;14.90;8.70;;;;;;;-0.73;100.00;98560.19;6106211;19;20474;-73
2024/02/13 07:31:19;;;;;;;15.43;8.57;;;;;;;-0.65;100.00;98559.47;6107863;19;20003;-73
2024/02/13 07:33:19;;;;;;;14.05;8.50;;;;;;;-0.62;100.00;98562.38;6108239;19;20006;-73
2024/02/13 07:35:21;;;;;;;14.75;9.13;;;;;;;-0.63;100.00;98559.97;6106896;19;20011;-73
2024/02/13 07:37:23;;;;;;;17.50;9.27;;;;;;;-0.57;100.00;98562.28;6107768;19;20006;-73
2024/02/13 07:39:23;;;;;;;16.75;9.35;;;;;;;-0.53;100.00;98556.25;6107268;19;20006;-73
2024/02/13 07:41:24;;;;;;;15.13;8.57;;;;;;;-0.49;100.00;98566.22;6107570;19;20466;-73
2024/02/13 07:43:25;;;;;;;19.50;9.57;;;;;;;-0.45;100.00;98563.69;6105624;19;20009;-73
2024/02/13 07:45:26;;;;;;;15.45;8.88;;;;;;;-0.38;100.00;98564.09;6107331;19;20010;-73
2024/02/13 07:47:26;;;;;;;17.90;9.15;;;;;;;-0.36;100.00;98565.38;6098365;19;20053;-74
2024/02/13 07:49:27;;;;;;;16.95;8.60;;;;;;;-0.33;100.00;98564.00;6098081;19;20019;-73
2024/02/13 07:51:27;;;;;;;14.40;8.25;;;;;;;-0.31;100.00;98578.06;6099039;19;20080;-73
2024/02/13 07:53:29;;;;;;;17.50;8.88;;;;;;;-0.25;100.00;98567.88;6100106;19;20018;-74
2024/02/13 07:55:29;;;;;;;13.32;8.40;;;;;;;-0.21;100.00;98586.00;6099269;19;20014;-73
2024/02/13 07:57:29;;;;;;;12.75;7.90;;;;;;;-0.11;100.00;98587.69;6098016;19;20011;-73
2024/02/13 07:59:30;;;;;;;14.18;7.97;;;;;;;-0.03;100.00;98582.34;6096536;19;20006;-74
2024/02/13 08:01:31;;;;;;;18.15;8.85;;;;;;;0.10;100.00;98582.63;6093072;19;20003;-74
2024/02/13 08:03:36;;;;;;;15.32;8.00;;;;;;;0.18;100.00;98573.72;6092478;19;20009;-74
2024/02/13 08:05:39;;;;;;;12.10;7.32;;;;;;;0.30;100.00;98573.97;6099617;19;20003;-73
2024/02/13 08:07:39;;;;;;;13.07;7.47;;;;;;;0.41;100.00;98575.34;6097428;19;20472;-74
2024/02/13 08:09:40;;;;;;;13.73;8.07;;;;;;;0.50;100.00;98576.22;6099455;19;20393;-73
2024/02/13 08:11:41;;;;;;;14.63;7.57;;;;;;;0.62;100.00;98572.94;6099454;19;20318;-74
2024/02/13 08:13:41;;;;;;;11.88;7.03;;;;;;;0.78;100.00;98579.59;6094778;19;20007;-74
2024/02/13 08:15:42;;;;;;;16.48;7.85;;;;;;;0.89;100.00;98580.16;6098492;19;20322;-73
2024/02/13 08:17:43;;;;;;;13.70;7.63;;;;;;;0.98;100.00;98580.19;6098439;19;20009;-74
2024/02/13 08:19:43;;;;;;;12.73;7.72;;;;;;;1.04;100.00;98581.66;6096968;19;20356;-74
2024/02/13 08:21:43;;;;;;;13.07;7.75;;;;;;;1.15;100.00;98587.66;6095156;19;20029;-74
2024/02/13 08:23:44;;;;;;;13.30;7.72;;;;;;;1.19;100.00;98581.28;6097647;19;20605;-74
2024/02/13 08:25:44;;;;;;;19.92;8.18;;;;;;;1.24;100.00;98583.03;6094886;19;20344;-74
2024/02/13 08:27:44;;;;;;;17.65;7.82;;;;;;;1.36;100.00;98583.25;6093246;19;20369;-74
2024/02/13 08:29:45;;;;;;;13.82;7.70;;;;;;;1.48;100.00;98585.38;6098315;19;20027;-74
2024/02/13 08:31:45;;;;;;;15.05;7.53;;;;;;;1.59;100.00;98586.72;6096954;19;19999;-73
2024/02/13 08:33:46;;;;;;;14.13;7.35;;;;;;;1.64;100.00;98594.75;6095879;19;20002;-73
2024/02/13 08:35:46;;;;;;;12.10;7.10;;;;;;;1.69;100.00;98589.16;6094451;19;20009;-73
2024/02/13 08:37:47;;;;;;;15.65;7.43;;;;;;;1.76;100.00;98591.41;6094519;19;19999;-74
2024/02/13 08:39:48;;;;;;;15.38;7.93;;;;;;;1.84;100.00;98598.81;6094958;19;20028;-74
2024/02/13 08:41:48;;;;;;;14.52;7.95;;;;;;;1.93;100.00;98599.63;6097578;19;20003;-74
2024/02/13 08:43:48;;;;;;;13.23;7.57;;;;;;;2.05;100.00;98599.81;6097277;19;20018;-73
2024/02/13 08:45:48;;;;;;;16.00;7.50;;;;;;;2.08;100.00;98606.56;6097186;19;20011;-73
2024/02/13 08:47:49;;;;;;;11.80;7.47;;;;;;;2.11;100.00;98603.19;6100843;19;20016;-73
2024/02/13 08:49:49;;;;;;;12.07;7.20;;;;;;;2.18;100.00;98603.53;6106611;19;20324;-74
2024/02/13 08:51:50;;;;;;;12.25;7.50;;;;;;;2.25;100.00;98606.59;6106099;19;20027;-74
2024/02/13 08:53:51;;;;;;;11.23;6.72;;;;;;;2.27;100.00;98603.53;6105918;19;20025;-73
2024/02/13 08:55:51;;;;;;;19.50;11.00;;;;;;;2.30;100.00;98606.41;6105729;19;20919;-73
2024/02/13 08:57:52;;;;;;;18.98;9.15;;;;;;;2.48;100.00;98601.75;6107131;19;20005;-73
2024/02/13 08:59:54;;;;;;;13.40;7.55;;;;;;;2.59;100.00;98603.06;6108684;19;20036;-73
2024/02/13 09:01:56;;;;;;;14.15;7.82;;;;;;;2.75;100.00;98601.44;6108580;19;20006;-73
2024/02/13 09:03:56;;;;;;;18.27;7.67;;;;;;;2.81;100.00;98608.34;6109750;19;20062;-73
2024/02/13 09:05:57;;;;;;;12.68;7.55;;;;;;;2.82;100.00;98609.16;6109057;19;20032;-73
2024/02/13 09:07:57;;;;;;;11.75;7.45;;;;;;;2.88;100.00;98613.28;6107458;19;19994;-73
2024/02/13 09:09:58;;;;;;;10.90;5.75;;;;;;;2.97;100.00;98605.88;6110368;19;20007;-73
2024/02/13 09:11:59;;;;;;;10.50;6.57;;;;;;;3.05;100.00;98605.06;6110550;19;20002;-73
2024/02/13 09:13:59;;;;;;;14.90;7.13;;;;;;;3.08;100.00;98612.63;6111523;19;20025;-73
2024/02/13 09:16:00;;;;;;;11.55;5.72;;;;;;;3.14;100.00;98606.97;6110797;19;20009;-73
2024/02/13 09:18:00;;;;;;;12.60;6.53;;;;;;;3.19;100.00;98604.06;6110855;19;20429;-73
2024/02/13 09:20:00;;;;;;;12.90;5.60;;;;;;;3.40;100.00;98617.84;6109962;19;20347;-73
2024/02/13 09:22:00;;;;;;;11.13;5.97;;;;;;;3.45;100.00;98606.72;6110562;19;20464;-73
2024/02/13 09:24:01;;;;;;;11.20;5.82;;;;;;;3.50;100.00;98628.44;6111264;19;20494;-73
2024/02/13 09:26:01;;;;;;;9.05;4.90;;;;;;;3.60;100.00;98620.66;6110142;19;20333;-73
2024/02/13 09:28:02;;;;;;;14.07;5.47;;;;;;;3.64;100.00;98627.09;6109441;19;20470;-73